Denver, Colorado
Traffic Map
Current Weather Conditions
Denver, Colorado
Few Clouds
Few Clouds
15°
Feels Like: 15°
Wind Chill: 15° Ceiling: Unl
Heat Index: 15° Visibility: 10mi
Dew Point: 12° Wind: 7mph
Humidity: 82% Direction: 190° (S)
Pressure: 30.25in Gusts: 0mph
Raw Report DataKBKF 250958Z 19006KT 10SM FEW220 15/12 A3025 RMK AO2A SLP163 T01510121
Traffic Incident Summary
Active as of:
Severity:
Category:
InformationThere was an issue retrieving the traffic information for this location. Please try a different location or try again shortly.
Advertisements
Track Severe Weather on mobile